KLM1818 EHAM-EDDF
Flight info
| Callsign | KLM1818 |
|---|---|
| Flight time | 0h 42m |
| Altitude | 35000 |
| Route | EDUPO Z739 MISGO DCT DIXAT DIXAT1A |
| Aircraft | E75L/M-SDE3GILORVW/S |
Departure
| Time | 2026-05-07 18:19 |
|---|---|
| Airport | Amsterdam Airport Schiphol (EHAM) |
Arrival
| Time | 2026-05-07 19:02 |
|---|---|
| Airport | Frankfurt Main Airport (EDDF) |
| Time | Latitude | Longitude | Altitude | Speed | Heading |
|---|---|---|---|---|---|
| 2026-05-07 17:42 | 52.31478 | 4.77401 | -5 ft | 0 kts | 220° |
| 2026-05-07 18:11 | 52.31471 | 4.77392 | -5 ft | 3 kts | 220° |
| 2026-05-07 18:11 | 52.31465 | 4.77384 | -5 ft | 0 kts | 220° |
| 2026-05-07 18:12 | 52.31453 | 4.77366 | -5 ft | 4 kts | 225° |
| 2026-05-07 18:12 | 52.31436 | 4.77309 | -5 ft | 7 kts | 266° |
| 2026-05-07 18:12 | 52.31455 | 4.77217 | -5 ft | 10 kts | 301° |
| 2026-05-07 18:12 | 52.31485 | 4.77095 | -5 ft | 13 kts | 279° |
| 2026-05-07 18:13 | 52.31482 | 4.76942 | -5 ft | 15 kts | 266° |
| 2026-05-07 18:13 | 52.31475 | 4.76757 | -5 ft | 18 kts | 266° |
| 2026-05-07 18:13 | 52.31468 | 4.76552 | -5 ft | 19 kts | 265° |
| 2026-05-07 18:13 | 52.31461 | 4.76324 | -5 ft | 21 kts | 267° |
| 2026-05-07 18:14 | 52.31453 | 4.76088 | -5 ft | 20 kts | 267° |
| 2026-05-07 18:14 | 52.31445 | 4.75842 | -5 ft | 23 kts | 266° |
| 2026-05-07 18:14 | 52.31435 | 4.75567 | -5 ft | 24 kts | 265° |
| 2026-05-07 18:14 | 52.31425 | 4.75274 | -5 ft | 27 kts | 267° |
| 2026-05-07 18:15 | 52.31413 | 4.74985 | -5 ft | 26 kts | 268° |
| 2026-05-07 18:15 | 52.31404 | 4.74673 | -5 ft | 29 kts | 267° |
| 2026-05-07 18:15 | 52.31394 | 4.74356 | -5 ft | 24 kts | 266° |
| 2026-05-07 18:15 | 52.31362 | 4.74135 | -5 ft | 13 kts | 201° |
| 2026-05-07 18:16 | 52.31266 | 4.74126 | -5 ft | 15 kts | 181° |
| 2026-05-07 18:16 | 52.31149 | 4.74119 | -5 ft | 18 kts | 193° |
| 2026-05-07 18:16 | 52.31024 | 4.74102 | -5 ft | 19 kts | 185° |
| 2026-05-07 18:16 | 52.30881 | 4.74089 | -5 ft | 22 kts | 183° |
| 2026-05-07 18:17 | 52.30720 | 4.74073 | -5 ft | 24 kts | 183° |
| 2026-05-07 18:17 | 52.30547 | 4.74057 | -5 ft | 26 kts | 182° |
| 2026-05-07 18:17 | 52.30362 | 4.74039 | -5 ft | 26 kts | 182° |
| 2026-05-07 18:17 | 52.30224 | 4.73917 | -5 ft | 24 kts | 220° |
| 2026-05-07 18:18 | 52.30243 | 4.73745 | -6 ft | 21 kts | 355° |
| 2026-05-07 18:18 | 52.30395 | 4.73753 | -7 ft | 15 kts | 4° |
| 2026-05-07 18:18 | 52.30437 | 4.73759 | -6 ft | 6 kts | 6° |
| 2026-05-07 18:18 | 52.30550 | 4.73784 | -6 ft | 50 kts | 9° |
| 2026-05-07 18:19 | 52.31224 | 4.73844 | -2 ft | 142 kts | 11° |
| 2026-05-07 18:19 | 52.32322 | 4.73964 | 801 ft | 165 kts | 4° |
| 2026-05-07 18:19 | 52.33469 | 4.74032 | 2085 ft | 169 kts | 11° |
| 2026-05-07 18:19 | 52.34688 | 4.74603 | 2973 ft | 197 kts | 21° |
| 2026-05-07 18:20 | 52.36021 | 4.75497 | 4032 ft | 212 kts | 25° |
| 2026-05-07 18:20 | 52.37367 | 4.76543 | 5258 ft | 218 kts | 30° |
| 2026-05-07 18:20 | 52.38566 | 4.78121 | 6389 ft | 224 kts | 45° |
| 2026-05-07 18:20 | 52.39678 | 4.79950 | 7488 ft | 229 kts | 46° |
| 2026-05-07 18:21 | 52.40795 | 4.81839 | 8605 ft | 232 kts | 46° |
| 2026-05-07 18:21 | 52.41822 | 4.83895 | 9689 ft | 236 kts | 59° |
| 2026-05-07 18:21 | 52.42364 | 4.86451 | 10669 ft | 242 kts | 82° |
| 2026-05-07 18:21 | 52.42470 | 4.89240 | 11737 ft | 249 kts | 89° |
| 2026-05-07 18:22 | 52.42507 | 4.92248 | 12409 ft | 283 kts | 90° |
| 2026-05-07 18:22 | 52.42504 | 4.93356 | 12566 ft | 296 kts | 91° |
| 2026-05-07 18:22 | 52.41688 | 4.99225 | 13737 ft | 338 kts | 123° |
| 2026-05-07 18:22 | 52.40119 | 5.02015 | 15027 ft | 339 kts | 144° |
| 2026-05-07 18:23 | 52.38832 | 5.03542 | 15937 ft | 339 kts | 146° |
| 2026-05-07 18:23 | 52.36915 | 5.05807 | 17211 ft | 343 kts | 146° |
| 2026-05-07 18:23 | 52.34910 | 5.08019 | 18322 ft | 350 kts | 149° |
| 2026-05-07 18:23 | 52.32326 | 5.11298 | 19605 ft | 357 kts | 137° |
| 2026-05-07 18:24 | 52.31140 | 5.13195 | 20245 ft | 361 kts | 136° |
| 2026-05-07 18:24 | 52.29358 | 5.16239 | 21198 ft | 367 kts | 133° |
| 2026-05-07 18:24 | 52.27665 | 5.19400 | 22126 ft | 373 kts | 131° |
| 2026-05-07 18:24 | 52.26014 | 5.22631 | 22994 ft | 378 kts | 131° |
| 2026-05-07 18:25 | 52.24325 | 5.26044 | 23796 ft | 384 kts | 127° |
| 2026-05-07 18:25 | 52.22751 | 5.29594 | 24520 ft | 389 kts | 127° |
| 2026-05-07 18:25 | 52.21161 | 5.33221 | 25048 ft | 399 kts | 127° |
| 2026-05-07 18:25 | 52.19491 | 5.37065 | 25039 ft | 424 kts | 126° |
| 2026-05-07 18:26 | 52.17745 | 5.41097 | 25030 ft | 445 kts | 126° |
| 2026-05-07 18:26 | 52.15914 | 5.45316 | 25038 ft | 465 kts | 126° |
| 2026-05-07 18:26 | 52.14045 | 5.49606 | 25008 ft | 455 kts | 127° |
| 2026-05-07 18:26 | 52.12271 | 5.53669 | 24895 ft | 426 kts | 127° |
| 2026-05-07 18:27 | 52.10595 | 5.57497 | 25149 ft | 392 kts | 127° |
| 2026-05-07 18:27 | 52.09035 | 5.61049 | 25088 ft | 382 kts | 127° |
| 2026-05-07 18:27 | 52.07449 | 5.64640 | 25100 ft | 393 kts | 127° |
| 2026-05-07 18:27 | 52.05858 | 5.68245 | 25238 ft | 394 kts | 127° |
| 2026-05-07 18:28 | 52.04174 | 5.71712 | 26072 ft | 387 kts | 132° |
| 2026-05-07 18:28 | 52.02375 | 5.74974 | 26680 ft | 389 kts | 135° |
| 2026-05-07 18:28 | 52.00487 | 5.78239 | 27134 ft | 396 kts | 135° |
| 2026-05-07 18:28 | 51.98601 | 5.81575 | 27535 ft | 403 kts | 134° |
| 2026-05-07 18:29 | 51.96729 | 5.85030 | 27919 ft | 411 kts | 133° |
| 2026-05-07 18:29 | 51.94867 | 5.88569 | 28427 ft | 414 kts | 132° |
| 2026-05-07 18:29 | 51.93000 | 5.92130 | 28988 ft | 416 kts | 132° |
| 2026-05-07 18:29 | 51.91105 | 5.95699 | 29479 ft | 419 kts | 133° |
| 2026-05-07 18:30 | 51.89187 | 5.99262 | 29978 ft | 422 kts | 133° |
| 2026-05-07 18:30 | 51.87243 | 6.02849 | 30409 ft | 425 kts | 133° |
| 2026-05-07 18:30 | 51.85292 | 6.06451 | 30796 ft | 427 kts | 133° |
| 2026-05-07 18:30 | 51.83332 | 6.10068 | 31175 ft | 429 kts | 133° |
| 2026-05-07 18:31 | 51.81356 | 6.13699 | 31508 ft | 432 kts | 133° |
| 2026-05-07 18:31 | 51.79339 | 6.17393 | 31510 ft | 443 kts | 133° |
| 2026-05-07 18:31 | 51.77277 | 6.21163 | 31528 ft | 452 kts | 133° |
| 2026-05-07 18:32 | 51.73039 | 6.28900 | 31571 ft | 468 kts | 133° |
| 2026-05-07 18:32 | 51.68671 | 6.36854 | 31768 ft | 477 kts | 133° |
| 2026-05-07 18:32 | 51.66464 | 6.40866 | 32218 ft | 473 kts | 133° |
| 2026-05-07 18:33 | 51.64271 | 6.44842 | 32744 ft | 468 kts | 133° |
| 2026-05-07 18:33 | 51.62131 | 6.48716 | 33236 ft | 462 kts | 133° |
| 2026-05-07 18:33 | 51.60000 | 6.52568 | 32866 ft | 453 kts | 133° |
| 2026-05-07 18:34 | 51.55914 | 6.59946 | 32637 ft | 431 kts | 133° |
| 2026-05-07 18:34 | 51.53944 | 6.63494 | 32167 ft | 420 kts | 133° |
| 2026-05-07 18:34 | 51.51995 | 6.66996 | 31723 ft | 409 kts | 133° |
| 2026-05-07 18:34 | 51.50109 | 6.70379 | 31093 ft | 404 kts | 133° |
| 2026-05-07 18:35 | 51.48240 | 6.73728 | 30315 ft | 404 kts | 134° |
| 2026-05-07 18:35 | 51.46355 | 6.77099 | 29249 ft | 408 kts | 134° |
| 2026-05-07 18:35 | 51.44450 | 6.80503 | 27944 ft | 414 kts | 133° |
| 2026-05-07 18:35 | 51.42521 | 6.83945 | 26857 ft | 420 kts | 133° |
| 2026-05-07 18:36 | 51.40613 | 6.87359 | 28099 ft | 391 kts | 133° |
| 2026-05-07 18:36 | 51.38863 | 6.90547 | 28807 ft | 375 kts | 132° |
| 2026-05-07 18:36 | 51.37252 | 6.93757 | 28313 ft | 370 kts | 129° |
| 2026-05-07 18:36 | 51.35698 | 6.97057 | 27650 ft | 369 kts | 128° |
| 2026-05-07 18:37 | 51.34146 | 7.00338 | 27224 ft | 370 kts | 129° |
| 2026-05-07 18:37 | 51.32532 | 7.03628 | 27375 ft | 369 kts | 130° |
| 2026-05-07 18:37 | 51.30930 | 7.06807 | 27047 ft | 368 kts | 130° |
| 2026-05-07 18:37 | 51.29302 | 7.10003 | 26540 ft | 372 kts | 130° |
| 2026-05-07 18:38 | 51.27637 | 7.13220 | 26179 ft | 373 kts | 135° |
| 2026-05-07 18:38 | 51.25622 | 7.15791 | 26795 ft | 370 kts | 151° |
| 2026-05-07 18:38 | 51.23315 | 7.17852 | 26518 ft | 396 kts | 153° |
| 2026-05-07 18:38 | 51.20750 | 7.19951 | 26117 ft | 427 kts | 155° |
| 2026-05-07 18:39 | 51.18033 | 7.22051 | 26096 ft | 438 kts | 156° |
| 2026-05-07 18:39 | 51.15280 | 7.24170 | 26086 ft | 440 kts | 155° |
| 2026-05-07 18:39 | 51.12531 | 7.26326 | 26078 ft | 440 kts | 155° |
| 2026-05-07 18:39 | 51.09804 | 7.28512 | 26081 ft | 440 kts | 154° |
| 2026-05-07 18:40 | 51.07095 | 7.30761 | 26069 ft | 441 kts | 154° |
| 2026-05-07 18:40 | 51.04377 | 7.33047 | 26064 ft | 440 kts | 153° |
| 2026-05-07 18:40 | 51.01564 | 7.35398 | 25389 ft | 445 kts | 154° |
| 2026-05-07 18:40 | 50.98771 | 7.37704 | 24229 ft | 446 kts | 154° |
| 2026-05-07 18:41 | 50.96043 | 7.39939 | 23718 ft | 439 kts | 154° |
| 2026-05-07 18:41 | 50.93314 | 7.42167 | 23116 ft | 444 kts | 154° |
| 2026-05-07 18:41 | 50.90569 | 7.44409 | 22492 ft | 442 kts | 154° |
| 2026-05-07 18:41 | 50.87859 | 7.46631 | 21917 ft | 438 kts | 154° |
| 2026-05-07 18:42 | 50.85166 | 7.48836 | 21385 ft | 433 kts | 154° |
| 2026-05-07 18:42 | 50.82496 | 7.51021 | 20760 ft | 430 kts | 154° |
| 2026-05-07 18:42 | 50.79927 | 7.53120 | 20177 ft | 391 kts | 154° |
| 2026-05-07 18:42 | 50.77624 | 7.55004 | 19717 ft | 357 kts | 154° |
| 2026-05-07 18:43 | 50.75484 | 7.56746 | 19266 ft | 335 kts | 154° |
| 2026-05-07 18:43 | 50.74102 | 7.57867 | 19003 ft | 328 kts | 154° |
| 2026-05-07 18:43 | 50.72064 | 7.59510 | 18527 ft | 333 kts | 154° |
| 2026-05-07 18:43 | 50.69865 | 7.61278 | 18071 ft | 377 kts | 154° |
| 2026-05-07 18:44 | 50.67478 | 7.63206 | 17592 ft | 387 kts | 154° |
| 2026-05-07 18:44 | 50.65089 | 7.65148 | 17095 ft | 386 kts | 154° |
| 2026-05-07 18:44 | 50.62708 | 7.67088 | 16610 ft | 384 kts | 154° |
| 2026-05-07 18:44 | 50.60353 | 7.68998 | 16186 ft | 380 kts | 154° |
| 2026-05-07 18:45 | 50.57996 | 7.70898 | 15712 ft | 378 kts | 154° |
| 2026-05-07 18:45 | 50.55666 | 7.72769 | 15248 ft | 376 kts | 154° |
| 2026-05-07 18:45 | 50.53335 | 7.74639 | 14831 ft | 373 kts | 154° |
| 2026-05-07 18:45 | 50.51033 | 7.76489 | 14378 ft | 371 kts | 154° |
| 2026-05-07 18:46 | 50.48747 | 7.78325 | 13943 ft | 369 kts | 154° |
| 2026-05-07 18:46 | 50.46465 | 7.80158 | 13520 ft | 365 kts | 154° |
| 2026-05-07 18:46 | 50.44202 | 7.81971 | 13105 ft | 364 kts | 154° |
| 2026-05-07 18:46 | 50.41983 | 7.83858 | 12754 ft | 363 kts | 149° |
| 2026-05-07 18:47 | 50.39972 | 7.86231 | 12391 ft | 361 kts | 140° |
| 2026-05-07 18:47 | 50.38125 | 7.88932 | 12050 ft | 360 kts | 137° |
| 2026-05-07 18:47 | 50.36304 | 7.91587 | 11711 ft | 358 kts | 139° |
| 2026-05-07 18:47 | 50.34421 | 7.94058 | 11376 ft | 356 kts | 142° |
| 2026-05-07 18:48 | 50.32294 | 7.95975 | 11059 ft | 353 kts | 161° |
| 2026-05-07 18:48 | 50.29854 | 7.96497 | 10752 ft | 350 kts | 185° |
| 2026-05-07 18:48 | 50.27508 | 7.95851 | 10542 ft | 348 kts | 193° |
| 2026-05-07 18:48 | 50.25145 | 7.95032 | 10177 ft | 348 kts | 193° |
| 2026-05-07 18:49 | 50.22769 | 7.94211 | 9581 ft | 343 kts | 193° |
| 2026-05-07 18:49 | 50.20533 | 7.93445 | 9557 ft | 317 kts | 193° |
| 2026-05-07 18:49 | 50.18445 | 7.92734 | 9503 ft | 296 kts | 193° |
| 2026-05-07 18:49 | 50.16467 | 7.92066 | 9444 ft | 279 kts | 193° |
| 2026-05-07 18:50 | 50.14635 | 7.91450 | 9382 ft | 259 kts | 193° |
| 2026-05-07 18:50 | 50.12924 | 7.90881 | 9301 ft | 246 kts | 193° |
| 2026-05-07 18:50 | 50.11272 | 7.90336 | 9153 ft | 238 kts | 193° |
| 2026-05-07 18:50 | 50.09645 | 7.90029 | 8863 ft | 237 kts | 176° |
| 2026-05-07 18:51 | 50.07996 | 7.90372 | 8509 ft | 240 kts | 173° |
| 2026-05-07 18:51 | 50.06334 | 7.90736 | 8106 ft | 244 kts | 173° |
| 2026-05-07 18:51 | 50.04622 | 7.91104 | 7594 ft | 252 kts | 173° |
| 2026-05-07 18:51 | 50.02831 | 7.91490 | 7151 ft | 258 kts | 173° |
| 2026-05-07 18:52 | 50.01094 | 7.91862 | 7615 ft | 249 kts | 173° |
| 2026-05-07 18:52 | 49.99414 | 7.92224 | 7523 ft | 239 kts | 173° |
| 2026-05-07 18:52 | 49.97778 | 7.92579 | 7298 ft | 235 kts | 173° |
| 2026-05-07 18:52 | 49.96197 | 7.93160 | 6966 ft | 238 kts | 157° |
| 2026-05-07 18:53 | 49.94785 | 7.94573 | 6532 ft | 244 kts | 132° |
| 2026-05-07 18:53 | 49.93910 | 7.96710 | 6485 ft | 231 kts | 112° |
| 2026-05-07 18:53 | 49.93577 | 7.99072 | 6471 ft | 218 kts | 98° |
| 2026-05-07 18:53 | 49.93372 | 8.01360 | 6349 ft | 205 kts | 98° |
| 2026-05-07 18:54 | 49.93143 | 8.03454 | 6166 ft | 187 kts | 99° |
| 2026-05-07 18:54 | 49.92998 | 8.05374 | 5840 ft | 179 kts | 82° |
| 2026-05-07 18:54 | 49.93396 | 8.07165 | 5437 ft | 175 kts | 63° |
| 2026-05-07 18:54 | 49.93886 | 8.08924 | 5014 ft | 177 kts | 69° |
| 2026-05-07 18:55 | 49.94262 | 8.10662 | 5022 ft | 166 kts | 69° |
| 2026-05-07 18:55 | 49.94693 | 8.12426 | 5072 ft | 180 kts | 67° |
| 2026-05-07 18:55 | 49.95146 | 8.14245 | 5119 ft | 182 kts | 68° |
| 2026-05-07 18:55 | 49.95594 | 8.16115 | 4982 ft | 186 kts | 68° |
| 2026-05-07 18:56 | 49.96040 | 8.17947 | 4958 ft | 179 kts | 68° |
| 2026-05-07 18:56 | 49.96488 | 8.19779 | 4719 ft | 182 kts | 68° |
| 2026-05-07 18:56 | 49.96932 | 8.21611 | 4421 ft | 180 kts | 68° |
| 2026-05-07 18:56 | 49.97363 | 8.23389 | 4153 ft | 178 kts | 68° |
| 2026-05-07 18:57 | 49.97806 | 8.25213 | 3882 ft | 177 kts | 68° |
| 2026-05-07 18:57 | 49.98238 | 8.27000 | 3621 ft | 176 kts | 68° |
| 2026-05-07 18:57 | 49.98668 | 8.28779 | 3368 ft | 175 kts | 68° |
| 2026-05-07 18:57 | 49.99094 | 8.30538 | 3109 ft | 174 kts | 68° |
| 2026-05-07 18:58 | 49.99527 | 8.32329 | 2850 ft | 173 kts | 68° |
| 2026-05-07 18:58 | 49.99950 | 8.34079 | 2596 ft | 173 kts | 68° |
| 2026-05-07 18:58 | 50.00373 | 8.35829 | 2354 ft | 172 kts | 68° |
| 2026-05-07 18:58 | 50.00780 | 8.37517 | 2091 ft | 158 kts | 68° |
| 2026-05-07 18:59 | 50.01153 | 8.39063 | 1869 ft | 142 kts | 69° |
| 2026-05-07 18:59 | 50.01481 | 8.40429 | 1668 ft | 132 kts | 69° |
| 2026-05-07 18:59 | 50.01804 | 8.41772 | 1485 ft | 134 kts | 69° |
| 2026-05-07 18:59 | 50.02138 | 8.43157 | 1276 ft | 137 kts | 70° |
| 2026-05-07 19:00 | 50.02466 | 8.44547 | 1036 ft | 137 kts | 69° |
| 2026-05-07 19:00 | 50.02812 | 8.45902 | 798 ft | 134 kts | 68° |
| 2026-05-07 19:00 | 50.03127 | 8.47230 | 619 ft | 127 kts | 70° |
| 2026-05-07 19:00 | 50.03421 | 8.48528 | 476 ft | 128 kts | 69° |
| 2026-05-07 19:01 | 50.03738 | 8.49831 | 352 ft | 128 kts | 68° |
| 2026-05-07 19:01 | 50.03955 | 8.50761 | 322 ft | 113 kts | 70° |
| 2026-05-07 19:01 | 50.04192 | 8.51725 | 332 ft | 74 kts | 67° |
| 2026-05-07 19:01 | 50.04346 | 8.52360 | 338 ft | 51 kts | 73° |
| 2026-05-07 19:02 | 50.04388 | 8.52862 | 348 ft | 45 kts | 95° |
| 2026-05-07 19:02 | 50.04355 | 8.53163 | 358 ft | 0 kts | 101° |
| 2026-05-07 19:03 | 50.04355 | 8.53164 | 358 ft | 0 kts | 101° |
| 2026-05-07 19:03 | 50.04353 | 8.53303 | 363 ft | 8 kts | 75° |
| 2026-05-07 19:04 | 50.04366 | 8.53370 | 368 ft | 11 kts | 73° |